地図

経路データ

SID SEASON NUMBER BASIN SUBBASIN NAME ISO_TIME NATURE LAT LON WMO_WIND WMO_PRES WMO_AGENCY TRACK_TYPE DIST2LAND LANDFALL IFLAG USA_AGENCY USA_ATCF_ID USA_LAT USA_LON USA_RECORD USA_STATUS USA_WIND USA_PRES USA_SSHS USA_R34_NE USA_R34_SE USA_R34_SW USA_R34_NW USA_R50_NE USA_R50_SE USA_R50_SW USA_R50_NW USA_R64_NE USA_R64_SE USA_R64_SW USA_R64_NW USA_POCI USA_ROCI USA_RMW USA_EYE TOKYO_LAT TOKYO_LON TOKYO_GRADE TOKYO_WIND TOKYO_PRES TOKYO_R50_DIR TOKYO_R50_LONG TOKYO_R50_SHORT TOKYO_R30_DIR TOKYO_R30_LONG TOKYO_R30_SHORT TOKYO_LAND CMA_LAT CMA_LON CMA_CAT CMA_WIND CMA_PRES HKO_LAT HKO_LON HKO_CAT HKO_WIND HKO_PRES NEWDELHI_LAT NEWDELHI_LON NEWDELHI_GRADE NEWDELHI_WIND NEWDELHI_PRES NEWDELHI_CI NEWDELHI_DP NEWDELHI_POCI REUNION_LAT REUNION_LON REUNION_TYPE REUNION_WIND REUNION_PRES REUNION_TNUM REUNION_CI REUNION_RMW REUNION_R34_NE REUNION_R34_SE REUNION_R34_SW REUNION_R34_NW REUNION_R50_NE REUNION_R50_SE REUNION_R50_SW REUNION_R50_NW REUNION_R64_NE REUNION_R64_SE REUNION_R64_SW REUNION_R64_NW BOM_LAT BOM_LON BOM_TYPE BOM_WIND BOM_PRES BOM_TNUM BOM_CI BOM_RMW BOM_R34_NE BOM_R34_SE BOM_R34_SW BOM_R34_NW BOM_R50_NE BOM_R50_SE BOM_R50_SW BOM_R50_NW BOM_R64_NE BOM_R64_SE BOM_R64_SW BOM_R64_NW BOM_ROCI BOM_POCI BOM_EYE BOM_POS_METHOD BOM_PRES_METHOD NADI_LAT NADI_LON NADI_CAT NADI_WIND NADI_PRES WELLINGTON_LAT WELLINGTON_LON WELLINGTON_WIND WELLINGTON_PRES DS824_LAT DS824_LON DS824_STAGE DS824_WIND DS824_PRES TD9636_LAT TD9636_LON TD9636_STAGE TD9636_WIND TD9636_PRES TD9635_LAT TD9635_LON TD9635_WIND TD9635_PRES TD9635_ROCI NEUMANN_LAT NEUMANN_LON NEUMANN_CLASS NEUMANN_WIND NEUMANN_PRES MLC_LAT MLC_LON MLC_CLASS MLC_WIND MLC_PRES USA_GUST BOM_GUST BOM_GUST_PER REUNION_GUST REUNION_GUST_PER USA_SEAHGT USA_SEARAD_NE USA_SEARAD_SE USA_SEARAD_SW USA_SEARAD_NW STORM_SPEED STORM_DIR
1990264N14328 1990 91 NA NA JOSEPHINE 1990-09-21 06:00:00 TS 14.0000 -32.0000 30 1009 hurdat_atl main 1564 1563 O_____________ hurdat_atl AL121990 14.0000 -32.0000 TD 30 1009 -1 7 321
1990264N14328 1990 91 NA NA JOSEPHINE 1990-09-21 09:00:00 TS 14.2525 -32.2099 main 1583 1583 P_____________ AL121990 14.2525 -32.2099 TD 30 1009 -1 6 322
1990264N14328 1990 91 NA NA JOSEPHINE 1990-09-21 12:00:00 TS 14.5000 -32.4000 30 1009 hurdat_atl main 1603 1603 O_____________ hurdat_atl AL121990 14.5000 -32.4000 TD 30 1009 -1 6 326
1990264N14328 1990 91 NA NA JOSEPHINE 1990-09-21 15:00:00 TS 14.7425 -32.5576 main 1624 1623 P_____________ AL121990 14.7425 -32.5576 TD 30 1008 -1 6 330
1990264N14328 1990 91 NA NA JOSEPHINE 1990-09-21 18:00:00 TS 15.0000 -32.7000 30 1008 hurdat_atl main 1634 1634 O_____________ hurdat_atl AL121990 15.0000 -32.7000 TD 30 1008 -1 6 332
1990264N14328 1990 91 NA NA JOSEPHINE 1990-09-21 21:00:00 TS 15.3000 -32.8575 main 1655 1655 P_____________ AL121990 15.3000 -32.8575 TD 30 1007 -1 7 334
1990264N14328 1990 91 NA NA JOSEPHINE 1990-09-22 00:00:00 TS 15.6000 -33.0000 30 1007 hurdat_atl main 1667 1667 O_____________ hurdat_atl AL121990 15.6000 -33.0000 TD 30 1007 -1 6 336
1990264N14328 1990 91 NA NA JOSEPHINE 1990-09-22 03:00:00 TS 15.8500 -33.1076 main 1678 1678 P_____________ AL121990 15.8500 -33.1076 TD 30 1007 -1 5 339
1990264N14328 1990 91 NA NA JOSEPHINE 1990-09-22 06:00:00 TS 16.1000 -33.2000 30 1007 hurdat_atl main 1690 1690 O_____________ hurdat_atl AL121990 16.1000 -33.2000 TD 30 1007 -1 6 340
1990264N14328 1990 91 NA NA JOSEPHINE 1990-09-22 09:00:00 TS 16.3850 -33.3150 main 1703 1703 P_____________ AL121990 16.3850 -33.3150 TD 30 1007 -1 6 342
1990264N14328 1990 91 NA NA JOSEPHINE 1990-09-22 12:00:00 TS 16.7000 -33.4000 30 1007 hurdat_atl main 1716 1716 O_____________ hurdat_atl AL121990 16.7000 -33.4000 TD 30 1007 -1 7 352
1990264N14328 1990 91 NA NA JOSEPHINE 1990-09-22 15:00:00 TS 17.0575 -33.4076 main 1721 1721 P_____________ AL121990 17.0575 -33.4076 TD 30 1007 -1 7 0
1990264N14328 1990 91 NA NA JOSEPHINE 1990-09-22 18:00:00 TS 17.4000 -33.4000 30 1007 hurdat_atl main 1725 1725 O_____________ hurdat_atl AL121990 17.4000 -33.4000 TD 30 1007 -1 6 356
1990264N14328 1990 91 NA NA JOSEPHINE 1990-09-22 21:00:00 TS 17.6800 -33.4425 main 1730 1730 P_____________ AL121990 17.6800 -33.4425 TD 30 1008 -1 5 349
1990264N14328 1990 91 NA NA JOSEPHINE 1990-09-23 00:00:00 TS 17.9000 -33.5000 30 1009 hurdat_atl main 1744 1744 O_____________ hurdat_atl AL121990 17.9000 -33.5000 TD 30 1009 -1 4 346
1990264N14328 1990 91 NA NA JOSEPHINE 1990-09-23 03:00:00 TS 18.0650 -33.5425 main 1744 1744 P_____________ AL121990 18.0650 -33.5425 TD 30 1009 -1 3 343
1990264N14328 1990 91 NA NA JOSEPHINE 1990-09-23 06:00:00 TS 18.2000 -33.6000 30 1009 hurdat_atl main 1752 1750 O_____________ hurdat_atl AL121990 18.2000 -33.6000 TD 30 1009 -1 3 334
1990264N14328 1990 91 NA NA JOSEPHINE 1990-09-23 09:00:00 TS 18.3575 -33.6925 main 1758 1758 P_____________ AL121990 18.3575 -33.6925 TD 30 1009 -1 4 328
1990264N14328 1990 91 NA NA JOSEPHINE 1990-09-23 12:00:00 TS 18.5000 -33.8000 30 1009 hurdat_atl main 1766 1766 O_____________ hurdat_atl AL121990 18.5000 -33.8000 TD 30 1009 -1 3 319
1990264N14328 1990 91 NA NA JOSEPHINE 1990-09-23 15:00:00 TS 18.6000 -33.9075 main 1774 1774 P_____________ AL121990 18.6000 -33.9075 TD 30 1009 -1 3 316
1990264N14328 1990 91 NA NA JOSEPHINE 1990-09-23 18:00:00 TS 18.7000 -34.0000 30 1009 hurdat_atl main 1783 1781 O_____________ hurdat_atl AL121990 18.7000 -34.0000 TD 30 1009 -1 3 330
1990264N14328 1990 91 NA NA JOSEPHINE 1990-09-23 21:00:00 TS 18.8575 -34.0650 main 1789 1787 P_____________ AL121990 18.8575 -34.0650 TD 30 1008 -1 3 343
1990264N14328 1990 91 NA NA JOSEPHINE 1990-09-24 00:00:00 TS 19.0000 -34.1000 30 1008 hurdat_atl main 1787 1786 O_____________ hurdat_atl AL121990 19.0000 -34.1000 TD 30 1008 -1 2 347
1990264N14328 1990 91 NA NA JOSEPHINE 1990-09-24 03:00:00 TS 19.0575 -34.1000 main 1786 1786 P_____________ AL121990 19.0575 -34.1000 TD 30 1007 -1 1 0
1990264N14328 1990 91 NA NA JOSEPHINE 1990-09-24 06:00:00 TS 19.1000 -34.1000 30 1007 hurdat_atl main 1786 1784 O_____________ hurdat_atl AL121990 19.1000 -34.1000 TD 30 1007 -1 1 344
1990264N14328 1990 91 NA NA JOSEPHINE 1990-09-24 09:00:00 TS 19.2000 -34.1350 main 1784 1784 P_____________ AL121990 19.2000 -34.1350 TD 32 1006 -1 2 333
1990264N14328 1990 91 NA NA JOSEPHINE 1990-09-24 12:00:00 TS 19.3000 -34.2000 35 1005 hurdat_atl main 1793 1793 O_____________ hurdat_atl AL121990 19.3000 -34.2000 TS 35 1005 0 2 317
1990264N14328 1990 91 NA NA JOSEPHINE 1990-09-24 15:00:00 TS 19.3575 -34.2925 main 1801 1801 P_____________ AL121990 19.3575 -34.2925 TS 35 1005 0 2 298
1990264N14328 1990 91 NA NA JOSEPHINE 1990-09-24 18:00:00 TS 19.4000 -34.4000 35 1005 hurdat_atl main 1812 1812 O_____________ hurdat_atl AL121990 19.4000 -34.4000 TS 35 1005 0 2 294
1990264N14328 1990 91 NA NA JOSEPHINE 1990-09-24 21:00:00 TS 19.4425 -34.5000 main 1822 1821 P_____________ AL121990 19.4425 -34.5000 TS 37 1004 0 2 298
1990264N14328 1990 91 NA NA JOSEPHINE 1990-09-25 00:00:00 TS 19.5000 -34.6000 40 1003 hurdat_atl main 1831 1831 O_____________ hurdat_atl AL121990 19.5000 -34.6000 TS 40 1003 0 2 311
1990264N14328 1990 91 NA NA JOSEPHINE 1990-09-25 03:00:00 TS 19.5925 -34.6850 main 1840 1839 P_____________ AL121990 19.5925 -34.6850 TS 40 1002 0 3 316
1990264N14328 1990 91 NA NA JOSEPHINE 1990-09-25 06:00:00 TS 19.7000 -34.8000 40 1002 hurdat_atl main 1849 1849 O_____________ hurdat_atl AL121990 19.7000 -34.8000 TS 40 1002 0 3 308
1990264N14328 1990 91 NA NA JOSEPHINE 1990-09-25 09:00:00 TS 19.7999 -34.9625 main 1868 1868 P_____________ AL121990 19.7999 -34.9625 TS 40 1002 0 4 298
1990264N14328 1990 91 NA NA JOSEPHINE 1990-09-25 12:00:00 TS 19.9000 -35.2000 40 1003 hurdat_atl main 1888 1888 O_____________ hurdat_atl AL121990 19.9000 -35.2000 TS 40 1003 0 6 291
1990264N14328 1990 91 NA NA JOSEPHINE 1990-09-25 15:00:00 TS 19.9999 -35.5125 main 1918 1918 P_____________ AL121990 19.9999 -35.5125 TS 37 1004 0 7 287
1990264N14328 1990 91 NA NA JOSEPHINE 1990-09-25 18:00:00 TS 20.1000 -35.9000 35 1005 hurdat_atl main 1958 1958 O_____________ hurdat_atl AL121990 20.1000 -35.9000 TS 35 1005 0 8 285
1990264N14328 1990 91 NA NA JOSEPHINE 1990-09-25 21:00:00 TS 20.2075 -36.3425 main 1999 1999 P_____________ AL121990 20.2075 -36.3425 TS 35 1005 0 9 283
1990264N14328 1990 91 NA NA JOSEPHINE 1990-09-26 00:00:00 TS 20.3000 -36.8000 35 1006 hurdat_atl main 2050 2050 O_____________ hurdat_atl AL121990 20.3000 -36.8000 TS 35 1006 0 8 281
1990264N14328 1990 91 NA NA JOSEPHINE 1990-09-26 03:00:00 TS 20.3724 -37.2075 main 2090 2090 P_____________ AL121990 20.3724 -37.2075 TS 32 1007 -1 8 278
1990264N14328 1990 91 NA NA JOSEPHINE 1990-09-26 06:00:00 TS 20.4000 -37.6000 30 1008 hurdat_atl main 2132 2132 O_____________ hurdat_atl AL121990 20.4000 -37.6000 TD 30 1008 -1 8 269
1990264N14328 1990 91 NA NA JOSEPHINE 1990-09-26 09:00:00 TS 20.3650 -38.0226 main 2174 2174 P_____________ AL121990 20.3650 -38.0226 TD 30 1008 -1 8 262
1990264N14328 1990 91 NA NA JOSEPHINE 1990-09-26 12:00:00 TS 20.3000 -38.4000 30 1009 hurdat_atl main 2216 2216 O_____________ hurdat_atl AL121990 20.3000 -38.4000 TD 30 1009 -1 6 259
1990264N14328 1990 91 NA NA JOSEPHINE 1990-09-26 15:00:00 TS 20.2424 -38.6800 main 2243 2230 P_____________ AL121990 20.2424 -38.6800 TD 30 1009 -1 5 258
1990264N14328 1990 91 NA NA JOSEPHINE 1990-09-26 18:00:00 TS 20.2000 -38.9000 30 1009 hurdat_atl main 2230 2217 O_____________ hurdat_atl AL121990 20.2000 -38.9000 TD 30 1009 -1 4 263
1990264N14328 1990 91 NA NA JOSEPHINE 1990-09-26 21:00:00 TS 20.1925 -39.1150 main 2217 2204 P_____________ AL121990 20.1925 -39.1150 TD 30 1009 -1 4 270
1990264N14328 1990 91 NA NA JOSEPHINE 1990-09-27 00:00:00 TS 20.2000 -39.3000 30 1009 hurdat_atl main 2204 2197 O_____________ hurdat_atl AL121990 20.2000 -39.3000 TD 30 1009 -1 3 270
1990264N14328 1990 91 NA NA JOSEPHINE 1990-09-27 03:00:00 TS 20.1924 -39.4500 main 2191 2185 P_____________ AL121990 20.1924 -39.4500 TD 30 1009 -1 3 270
1990264N14328 1990 91 NA NA JOSEPHINE 1990-09-27 06:00:00 TS 20.2000 -39.6000 30 1010 hurdat_atl main 2185 2172 O_____________ hurdat_atl AL121990 20.2000 -39.6000 TD 30 1010 -1 3 279
1990264N14328 1990 91 NA NA JOSEPHINE 1990-09-27 09:00:00 TS 20.2425 -39.7925 main 2172 2169 P_____________ AL121990 20.2425 -39.7925 TD 27 1011 -1 4 285
1990264N14328 1990 91 NA NA JOSEPHINE 1990-09-27 12:00:00 TS 20.3000 -40.0000 25 1012 hurdat_atl main 2169 2157 O_____________ hurdat_atl AL121990 20.3000 -40.0000 TD 25 1012 -1 4 284
1990264N14328 1990 91 NA NA JOSEPHINE 1990-09-27 15:00:00 TS 20.3425 -40.2150 main 2157 2153 P_____________ AL121990 20.3425 -40.2150 TD 25 1012 -1 4 285
1990264N14328 1990 91 NA NA JOSEPHINE 1990-09-27 18:00:00 TS 20.4000 -40.4000 25 1012 hurdat_atl main 2153 2146 O_____________ hurdat_atl AL121990 20.4000 -40.4000 TD 25 1012 -1 3 297
1990264N14328 1990 91 NA NA JOSEPHINE 1990-09-27 21:00:00 TS 20.4849 -40.5076 main 2155 2148 P_____________ AL121990 20.4849 -40.5076 TD 25 1012 -1 3 317
1990264N14328 1990 91 NA NA JOSEPHINE 1990-09-28 00:00:00 TS 20.6000 -40.6000 25 1012 hurdat_atl main 2157 2157 O_____________ hurdat_atl AL121990 20.6000 -40.6000 TD 25 1012 -1 3 320
1990264N14328 1990 91 NA NA JOSEPHINE 1990-09-28 03:00:00 TS 20.7425 -40.7425 main 2159 2159 P_____________ AL121990 20.7425 -40.7425 TD 25 1012 -1 4 317
1990264N14328 1990 91 NA NA JOSEPHINE 1990-09-28 06:00:00 TS 20.9000 -40.9000 25 1012 hurdat_atl main 2164 2164 O_____________ hurdat_atl AL121990 20.9000 -40.9000 TD 25 1012 -1 4 317
1990264N14328 1990 91 NA NA JOSEPHINE 1990-09-28 09:00:00 TS 21.0425 -41.0426 main 2167 2167 P_____________ AL121990 21.0425 -41.0426 TD 25 1012 -1 4 317
1990264N14328 1990 91 NA NA JOSEPHINE 1990-09-28 12:00:00 TS 21.2000 -41.2000 25 1012 hurdat_atl main 2172 2172 O_____________ hurdat_atl AL121990 21.2000 -41.2000 TD 25 1012 -1 5 318
1990264N14328 1990 91 NA NA JOSEPHINE 1990-09-28 15:00:00 TS 21.3925 -41.3850 main 2178 2178 P_____________ AL121990 21.3925 -41.3850 TD 25 1012 -1 5 317
1990264N14328 1990 91 NA NA JOSEPHINE 1990-09-28 18:00:00 TS 21.6000 -41.6000 25 1012 hurdat_atl main 2185 2183 O_____________ hurdat_atl AL121990 21.6000 -41.6000 TD 25 1012 -1 6 314
1990264N14328 1990 91 NA NA JOSEPHINE 1990-09-28 21:00:00 TS 21.7924 -41.8277 main 2192 2186 P_____________ AL121990 21.7924 -41.8277 TD 25 1012 -1 6 311
1990264N14328 1990 91 NA NA JOSEPHINE 1990-09-29 00:00:00 TS 22.0000 -42.1000 25 1012 hurdat_atl main 2194 2188 O_____________ hurdat_atl AL121990 22.0000 -42.1000 TD 25 1012 -1 7 308
1990264N14328 1990 91 NA NA JOSEPHINE 1990-09-29 03:00:00 TS 22.2350 -42.4276 main 2196 2195 P_____________ AL121990 22.2350 -42.4276 TD 25 1012 -1 8 308
1990264N14328 1990 91 NA NA JOSEPHINE 1990-09-29 06:00:00 TS 22.5000 -42.8000 25 1012 hurdat_atl main 2204 2199 O_____________ hurdat_atl AL121990 22.5000 -42.8000 TD 25 1012 -1 9 308
1990264N14328 1990 91 NA NA JOSEPHINE 1990-09-29 09:00:00 TS 22.7850 -43.2001 main 2213 2208 P_____________ AL121990 22.7850 -43.2001 TD 25 1011 -1 10 309
1990264N14328 1990 91 NA NA JOSEPHINE 1990-09-29 12:00:00 TS 23.1000 -43.6000 25 1010 hurdat_atl main 2223 2223 O_____________ hurdat_atl AL121990 23.1000 -43.6000 TD 25 1010 -1 10 313
1990264N14328 1990 91 NA NA JOSEPHINE 1990-09-29 15:00:00 TS 23.4424 -43.9577 main 2234 2234 P_____________ AL121990 23.4424 -43.9577 TD 27 1009 -1 10 317
1990264N14328 1990 91 NA NA JOSEPHINE 1990-09-29 18:00:00 TS 23.8000 -44.3000 30 1009 hurdat_atl main 2261 2254 O_____________ hurdat_atl AL121990 23.8000 -44.3000 TD 30 1009 -1 10 316
1990264N14328 1990 91 NA NA JOSEPHINE 1990-09-29 21:00:00 TS 24.1276 -44.6726 main 2254 2232 P_____________ AL121990 24.1276 -44.6726 TD 30 1009 -1 10 318
1990264N14328 1990 91 NA NA JOSEPHINE 1990-09-30 00:00:00 TS 24.5000 -45.0000 30 1009 hurdat_atl main 2235 2223 O_____________ hurdat_atl AL121990 24.5000 -45.0000 TD 30 1009 -1 10 328
1990264N14328 1990 91 NA NA JOSEPHINE 1990-09-30 03:00:00 TS 24.9624 -45.2450 main 2229 2219 P_____________ AL121990 24.9624 -45.2450 TD 30 1009 -1 11 340
1990264N14328 1990 91 NA NA JOSEPHINE 1990-09-30 06:00:00 TS 25.5000 -45.4000 30 1009 hurdat_atl main 2225 2225 O_____________ hurdat_atl AL121990 25.5000 -45.4000 TD 30 1009 -1 12 349
1990264N14328 1990 91 NA NA JOSEPHINE 1990-09-30 09:00:00 TS 26.0924 -45.4950 main 2236 2236 P_____________ AL121990 26.0924 -45.4950 TD 30 1009 -1 12 356
1990264N14328 1990 91 NA NA JOSEPHINE 1990-09-30 12:00:00 TS 26.7000 -45.5000 30 1009 hurdat_atl main 2258 2252 O_____________ hurdat_atl AL121990 26.7000 -45.5000 TD 30 1009 -1 12 2
1990264N14328 1990 91 NA NA JOSEPHINE 1990-09-30 15:00:00 TS 27.2874 -45.4451 main 2255 2204 P_____________ AL121990 27.2874 -45.4451 TD 30 1009 -1 11 9
1990264N14328 1990 91 NA NA JOSEPHINE 1990-09-30 18:00:00 TS 27.8000 -45.3000 30 1009 hurdat_atl main 2204 2167 O_____________ hurdat_atl AL121990 27.8000 -45.3000 TD 30 1009 -1 10 18
1990264N14328 1990 91 NA NA JOSEPHINE 1990-09-30 21:00:00 TS 28.1873 -45.1097 main 2167 2143 P_____________ AL121990 28.1873 -45.1097 TD 30 1009 -1 8 32
1990264N14328 1990 91 NA NA JOSEPHINE 1990-10-01 00:00:00 TS 28.5000 -44.8000 30 1009 hurdat_atl main 2143 2120 O_____________ hurdat_atl AL121990 28.5000 -44.8000 TD 30 1009 -1 9 46
1990264N14328 1990 91 NA NA JOSEPHINE 1990-10-01 03:00:00 TS 28.8148 -44.3673 main 2124 2108 P_____________ AL121990 28.8148 -44.3673 TD 30 1008 -1 11 56
1990264N14328 1990 91 NA NA JOSEPHINE 1990-10-01 06:00:00 TS 29.1000 -43.8000 30 1007 hurdat_atl main 2111 2101 O_____________ hurdat_atl AL121990 29.1000 -43.8000 TD 30 1007 -1 12 63
1990264N14328 1990 91 NA NA JOSEPHINE 1990-10-01 09:00:00 TS 29.3727 -43.1226 main 2104 2101 P_____________ AL121990 29.3727 -43.1226 TD 32 1006 -1 13 68
1990264N14328 1990 91 NA NA JOSEPHINE 1990-10-01 12:00:00 TS 29.6000 -42.4000 35 1005 hurdat_atl main 2109 2107 O_____________ hurdat_atl AL121990 29.6000 -42.4000 TS 35 1005 0 13 71
1990264N14328 1990 91 NA NA JOSEPHINE 1990-10-01 15:00:00 TS 29.7798 -41.7273 main 2116 2116 P_____________ AL121990 29.7798 -41.7273 TS 35 1005 0 12 75
1990264N14328 1990 91 NA NA JOSEPHINE 1990-10-01 18:00:00 TS 29.9000 -41.1000 35 1005 hurdat_atl main 2131 2131 O_____________ hurdat_atl AL121990 29.9000 -41.1000 TS 35 1005 0 11 80
1990264N14328 1990 91 NA NA JOSEPHINE 1990-10-01 21:00:00 TS 29.9725 -40.4973 main 2147 2147 P_____________ AL121990 29.9725 -40.4973 TS 35 1005 0 10 84
1990264N14328 1990 91 NA NA JOSEPHINE 1990-10-02 00:00:00 TS 30.0000 -40.0000 35 1005 hurdat_atl main 2169 2169 O_____________ hurdat_atl AL121990 30.0000 -40.0000 TS 35 1005 0 8 86
1990264N14328 1990 91 NA NA JOSEPHINE 1990-10-02 03:00:00 TS 30.0222 -39.6325 main 2187 2187 P_____________ AL121990 30.0222 -39.6325 TS 35 1004 0 5 90
1990264N14328 1990 91 NA NA JOSEPHINE 1990-10-02 06:00:00 TS 30.0000 -39.4000 35 1004 hurdat_atl main 2196 2186 O_____________ hurdat_atl AL121990 30.0000 -39.4000 TS 35 1004 0 3 108
1990264N14328 1990 91 NA NA JOSEPHINE 1990-10-02 09:00:00 TS 29.9149 -39.2550 main 2187 2177 P_____________ AL121990 29.9149 -39.2550 TS 37 1003 0 3 139
1990264N14328 1990 91 NA NA JOSEPHINE 1990-10-02 12:00:00 TS 29.8000 -39.2000 40 1003 hurdat_atl main 2177 2177 O_____________ hurdat_atl AL121990 29.8000 -39.2000 TS 40 1003 0 2 161
1990264N14328 1990 91 NA NA JOSEPHINE 1990-10-02 15:00:00 TS 29.7000 -39.1700 main 2177 2177 P_____________ AL121990 29.7000 -39.1700 TS 37 1004 0 2 172
1990264N14328 1990 91 NA NA JOSEPHINE 1990-10-02 18:00:00 TS 29.6000 -39.2000 35 1005 hurdat_atl main 2178 2178 O_____________ hurdat_atl AL121990 29.6000 -39.2000 TS 35 1005 0 2 200
1990264N14328 1990 91 NA NA JOSEPHINE 1990-10-02 21:00:00 TS 29.5074 -39.2549 main 2188 2188 P_____________ AL121990 29.5074 -39.2549 TS 35 1005 0 3 221
1990264N14328 1990 91 NA NA JOSEPHINE 1990-10-03 00:00:00 TS 29.4000 -39.4000 35 1005 hurdat_atl main 2198 2198 O_____________ hurdat_atl AL121990 29.4000 -39.4000 TS 35 1005 0 4 237
1990264N14328 1990 91 NA NA JOSEPHINE 1990-10-03 03:00:00 TS 29.2725 -39.6624 main 2227 2227 P_____________ AL121990 29.2725 -39.6624 TS 35 1005 0 6 240
1990264N14328 1990 91 NA NA JOSEPHINE 1990-10-03 06:00:00 TS 29.1000 -40.0000 35 1005 hurdat_atl main 2258 2254 O_____________ hurdat_atl AL121990 29.1000 -40.0000 TS 35 1005 0 7 235
1990264N14328 1990 91 NA NA JOSEPHINE 1990-10-03 09:00:00 TS 28.8500 -40.3427 main 2275 2267 P_____________ AL121990 28.8500 -40.3427 TS 35 1005 0 8 231
1990264N14328 1990 91 NA NA JOSEPHINE 1990-10-03 12:00:00 TS 28.6000 -40.7000 35 1005 hurdat_atl main 2279 2275 O_____________ hurdat_atl AL121990 28.6000 -40.7000 TS 35 1005 0 8 235
1990264N14328 1990 91 NA NA JOSEPHINE 1990-10-03 15:00:00 TS 28.4199 -41.0499 main 2287 2279 P_____________ AL121990 28.4199 -41.0499 TS 37 1004 0 7 244
1990264N14328 1990 91 NA NA JOSEPHINE 1990-10-03 18:00:00 TS 28.3000 -41.4000 40 1003 hurdat_atl main 2281 2276 O_____________ hurdat_atl AL121990 28.3000 -41.4000 TS 40 1003 0 7 251
1990264N14328 1990 91 NA NA JOSEPHINE 1990-10-03 21:00:00 TS 28.2051 -41.7726 main 2276 2265 P_____________ AL121990 28.2051 -41.7726 TS 42 1001 0 6 261
1990264N14328 1990 91 NA NA JOSEPHINE 1990-10-04 00:00:00 TS 28.2000 -42.1000 45 1000 hurdat_atl main 2265 2247 O_____________ hurdat_atl AL121990 28.2000 -42.1000 TS 45 1000 0 5 281
1990264N14328 1990 91 NA NA JOSEPHINE 1990-10-04 03:00:00 TS 28.3049 -42.3448 main 2247 2219 P_____________ AL121990 28.3049 -42.3448 TS 47 998 0 5 311
1990264N14328 1990 91 NA NA JOSEPHINE 1990-10-04 06:00:00 TS 28.5000 -42.5000 50 997 hurdat_atl main 2219 2195 O_____________ hurdat_atl AL121990 28.5000 -42.5000 TS 50 997 0 5 332
1990264N14328 1990 91 NA NA JOSEPHINE 1990-10-04 09:00:00 TS 28.7349 -42.6024 main 2195 2164 P_____________ AL121990 28.7349 -42.6024 TS 52 995 0 5 350
1990264N14328 1990 91 NA NA JOSEPHINE 1990-10-04 12:00:00 TS 29.0000 -42.6000 55 994 hurdat_atl main 2164 2143 O_____________ hurdat_atl AL121990 29.0000 -42.6000 TS 55 994 0 5 8
1990264N14328 1990 91 NA NA JOSEPHINE 1990-10-04 15:00:00 TS 29.2498 -42.5174 main 2147 2123 P_____________ AL121990 29.2498 -42.5174 TS 57 992 0 6 28
1990264N14328 1990 91 NA NA JOSEPHINE 1990-10-04 18:00:00 TS 29.5000 -42.3000 60 990 hurdat_atl main 2123 2111 O_____________ hurdat_atl AL121990 29.5000 -42.3000 TS 60 990 0 7 45
1990264N14328 1990 91 NA NA JOSEPHINE 1990-10-04 21:00:00 TS 29.7350 -41.9522 main 2115 2100 P_____________ AL121990 29.7350 -41.9522 TS 62 988 0 9 54
1990264N14328 1990 91 NA NA JOSEPHINE 1990-10-05 00:00:00 TS 30.0000 -41.5000 65 987 hurdat_atl main 2104 2091 O_____________ hurdat_atl AL121990 30.0000 -41.5000 HU 65 987 1 10 56
1990264N14328 1990 91 NA NA JOSEPHINE 1990-10-05 03:00:00 TS 30.2823 -41.0289 main 2095 2078 P_____________ AL121990 30.2823 -41.0289 HU 65 986 1 11 51
1990264N14328 1990 91 NA NA JOSEPHINE 1990-10-05 06:00:00 TS 30.7000 -40.5000 65 986 hurdat_atl main 2078 2047 O_____________ hurdat_atl AL121990 30.7000 -40.5000 HU 65 986 1 14 44
1990264N14328 1990 91 NA NA JOSEPHINE 1990-10-05 09:00:00 TS 31.3028 -39.8925 main 2047 1999 P_____________ AL121990 31.3028 -39.8925 HU 67 985 1 17 36
1990264N14328 1990 91 NA NA JOSEPHINE 1990-10-05 12:00:00 TS 32.1000 -39.3000 70 984 hurdat_atl main 1999 1941 O_____________ hurdat_atl AL121990 32.1000 -39.3000 HU 70 984 1 20 29
1990264N14328 1990 91 NA NA JOSEPHINE 1990-10-05 15:00:00 TS 33.0251 -38.7542 main 1941 1872 P_____________ AL121990 33.0251 -38.7542 HU 72 982 1 21 21
1990264N14328 1990 91 NA NA JOSEPHINE 1990-10-05 18:00:00 TS 34.1000 -38.4000 75 980 hurdat_atl main 1864 1773 O_____________ hurdat_atl AL121990 34.1000 -38.4000 HU 75 980 1 23 10
1990264N14328 1990 91 NA NA JOSEPHINE 1990-10-05 21:00:00 TS 35.2690 -38.2722 main 1765 1661 P_____________ AL121990 35.2690 -38.2722 HU 72 982 1 24 358
1990264N14328 1990 91 NA NA JOSEPHINE 1990-10-06 00:00:00 TS 36.5000 -38.5000 70 984 hurdat_atl main 1652 1525 O_____________ hurdat_atl AL121990 36.5000 -38.5000 HU 70 984 1 25 346
1990264N14328 1990 91 NA NA JOSEPHINE 1990-10-06 03:00:00 TS 37.7207 -39.0418 main 1525 1384 P_____________ AL121990 37.7207 -39.0418 HU 70 984 1 27 334
1990264N14328 1990 91 NA NA JOSEPHINE 1990-10-06 06:00:00 TS 38.9000 -40.0000 70 985 hurdat_atl main 1370 1213 O_____________ hurdat_atl AL121990 38.9000 -40.0000 HU 70 985 1 29 322
1990264N14328 1990 91 NA NA JOSEPHINE 1990-10-06 09:00:00 TS 39.9853 -41.3353 main 1205 1044 P_____________ AL121990 39.9853 -41.3353 HU 65 987 1 31 313
1990264N14328 1990 91 NA NA JOSEPHINE 1990-10-06 12:00:00 TS 41.0000 -42.9000 60 990 hurdat_atl main 1030 O_____________ hurdat_atl AL121990 41.0000 -42.9000 TS 60 990 0 31 311

IBTrACS Databaseについて

本データベースは、米国NOAAが公開する1842年以降の世界の熱帯低気圧のベストトラックデータアーカイブInternational Best Track Archive for Climate Stewardship (IBTrACS)を、ウェブで閲覧しやすい形式に変換したものです。

最終更新日:2021-12-08